sensor_id;sensor_type;location;lat;lon;timestamp;P1;durP1;ratioP1;P2;durP2;ratioP2
23668;SDS011;12011;47.422;15.018;2022-09-21T00:02:02;0.62;;;0.61;;
23668;SDS011;12011;47.422;15.018;2022-09-21T00:05:22;0.31;;;0.31;;
23668;SDS011;12011;47.422;15.018;2022-09-21T00:07:47;0.45;;;0.44;;
23668;SDS011;12011;47.422;15.018;2022-09-21T00:10:41;0.61;;;0.59;;
23668;SDS011;12011;47.422;15.018;2022-09-21T00:13:38;0.26;;;0.25;;
23668;SDS011;12011;47.422;15.018;2022-09-21T00:16:42;0.46;;;0.45;;
23668;SDS011;12011;47.422;15.018;2022-09-21T00:19:20;0.22;;;0.21;;
23668;SDS011;12011;47.422;15.018;2022-09-21T00:22:15;0.28;;;0.27;;
23668;SDS011;12011;47.422;15.018;2022-09-21T00:25:10;0.21;;;0.20;;
23668;SDS011;12011;47.422;15.018;2022-09-21T00:28:16;0.37;;;0.36;;
23668;SDS011;12011;47.422;15.018;2022-09-21T00:30:53;0.50;;;0.49;;
23668;SDS011;12011;47.422;15.018;2022-09-21T00:33:44;0.29;;;0.28;;
23668;SDS011;12011;47.422;15.018;2022-09-21T00:36:43;0.19;;;0.18;;
23668;SDS011;12011;47.422;15.018;2022-09-21T00:39:41;0.45;;;0.44;;
23668;SDS011;12011;47.422;15.018;2022-09-21T00:42:43;0.16;;;0.16;;
23668;SDS011;12011;47.422;15.018;2022-09-21T00:45:43;0.39;;;0.38;;
23668;SDS011;12011;47.422;15.018;2022-09-21T00:48:20;0.23;;;0.23;;
23668;SDS011;12011;47.422;15.018;2022-09-21T00:51:15;0.32;;;0.31;;
23668;SDS011;12011;47.422;15.018;2022-09-21T00:54:00;0.24;;;0.23;;
23668;SDS011;12011;47.422;15.018;2022-09-21T00:59:50;0.25;;;0.25;;
23668;SDS011;12011;47.422;15.018;2022-09-21T01:02:33;0.29;;;0.28;;
23668;SDS011;12011;47.422;15.018;2022-09-21T01:05:11;0.25;;;0.25;;
23668;SDS011;12011;47.422;15.018;2022-09-21T01:07:50;0.29;;;0.29;;
23668;SDS011;12011;47.422;15.018;2022-09-21T01:10:37;0.30;;;0.30;;
23668;SDS011;12011;47.422;15.018;2022-09-21T01:13:39;0.23;;;0.23;;
23668;SDS011;12011;47.422;15.018;2022-09-21T01:16:33;0.28;;;0.28;;
23668;SDS011;12011;47.422;15.018;2022-09-21T01:19:45;0.44;;;0.43;;
23668;SDS011;12011;47.422;15.018;2022-09-21T01:23:10;0.32;;;0.31;;
23668;SDS011;12011;47.422;15.018;2022-09-21T01:26:09;0.17;;;0.17;;
23668;SDS011;12011;47.422;15.018;2022-09-21T01:29:12;0.18;;;0.18;;
23668;SDS011;12011;47.422;15.018;2022-09-21T01:31:55;0.12;;;0.12;;
23668;SDS011;12011;47.422;15.018;2022-09-21T01:34:39;0.16;;;0.16;;
23668;SDS011;12011;47.422;15.018;2022-09-21T01:37:18;0.10;;;0.10;;
23668;SDS011;12011;47.422;15.018;2022-09-21T01:39:53;0.12;;;0.12;;
23668;SDS011;12011;47.422;15.018;2022-09-21T01:42:29;0.36;;;0.36;;
23668;SDS011;12011;47.422;15.018;2022-09-21T01:45:05;0.22;;;0.22;;
23668;SDS011;12011;47.422;15.018;2022-09-21T01:47:40;0.14;;;0.14;;
23668;SDS011;12011;47.422;15.018;2022-09-21T01:50:22;0.15;;;0.15;;
23668;SDS011;12011;47.422;15.018;2022-09-21T01:52:57;0.23;;;0.23;;
23668;SDS011;12011;47.422;15.018;2022-09-21T01:55:34;0.32;;;0.32;;
23668;SDS011;12011;47.422;15.018;2022-09-21T01:58:13;0.09;;;0.09;;
23668;SDS011;12011;47.422;15.018;2022-09-21T02:00:54;0.15;;;0.15;;
23668;SDS011;12011;47.422;15.018;2022-09-21T02:03:26;0.22;;;0.22;;
23668;SDS011;12011;47.422;15.018;2022-09-21T02:06:03;0.18;;;0.18;;
23668;SDS011;12011;47.422;15.018;2022-09-21T02:08:34;0.14;;;0.14;;
23668;SDS011;12011;47.422;15.018;2022-09-21T02:11:06;0.17;;;0.17;;
23668;SDS011;12011;47.422;15.018;2022-09-21T02:13:38;0.32;;;0.32;;
23668;SDS011;12011;47.422;15.018;2022-09-21T02:16:22;0.12;;;0.12;;
23668;SDS011;12011;47.422;15.018;2022-09-21T02:19:11;0.26;;;0.26;;
23668;SDS011;12011;47.422;15.018;2022-09-21T02:21:51;0.22;;;0.22;;
23668;SDS011;12011;47.422;15.018;2022-09-21T02:24:31;0.30;;;0.30;;
23668;SDS011;12011;47.422;15.018;2022-09-21T02:27:11;0.30;;;0.30;;
23668;SDS011;12011;47.422;15.018;2022-09-21T02:29:53;0.28;;;0.28;;
23668;SDS011;12011;47.422;15.018;2022-09-21T02:32:37;0.15;;;0.15;;
23668;SDS011;12011;47.422;15.018;2022-09-21T02:35:20;0.22;;;0.22;;
23668;SDS011;12011;47.422;15.018;2022-09-21T02:38:02;0.35;;;0.35;;
23668;SDS011;12011;47.422;15.018;2022-09-21T02:40:41;0.29;;;0.29;;
23668;SDS011;12011;47.422;15.018;2022-09-21T02:43:22;0.24;;;0.24;;
23668;SDS011;12011;47.422;15.018;2022-09-21T02:45:59;0.22;;;0.22;;
23668;SDS011;12011;47.422;15.018;2022-09-21T02:48:39;0.31;;;0.31;;
23668;SDS011;12011;47.422;15.018;2022-09-21T02:51:16;0.16;;;0.16;;
23668;SDS011;12011;47.422;15.018;2022-09-21T02:53:54;0.22;;;0.22;;
23668;SDS011;12011;47.422;15.018;2022-09-21T02:56:27;0.40;;;0.40;;
23668;SDS011;12011;47.422;15.018;2022-09-21T02:59:01;0.49;;;0.49;;
23668;SDS011;12011;47.422;15.018;2022-09-21T03:01:33;0.37;;;0.37;;
23668;SDS011;12011;47.422;15.018;2022-09-21T03:04:06;0.28;;;0.28;;
23668;SDS011;12011;47.422;15.018;2022-09-21T03:06:36;0.43;;;0.43;;
23668;SDS011;12011;47.422;15.018;2022-09-21T03:09:06;0.16;;;0.16;;
23668;SDS011;12011;47.422;15.018;2022-09-21T03:11:36;0.19;;;0.19;;
23668;SDS011;12011;47.422;15.018;2022-09-21T03:14:06;0.22;;;0.22;;
23668;SDS011;12011;47.422;15.018;2022-09-21T03:16:37;0.28;;;0.28;;
23668;SDS011;12011;47.422;15.018;2022-09-21T03:19:10;0.23;;;0.23;;
23668;SDS011;12011;47.422;15.018;2022-09-21T03:21:40;0.21;;;0.21;;
23668;SDS011;12011;47.422;15.018;2022-09-21T03:24:10;0.23;;;0.23;;
23668;SDS011;12011;47.422;15.018;2022-09-21T03:27:00;0.49;;;0.49;;
23668;SDS011;12011;47.422;15.018;2022-09-21T03:29:33;1.01;;;1.01;;
23668;SDS011;12011;47.422;15.018;2022-09-21T03:32:03;1.15;;;1.15;;
23668;SDS011;12011;47.422;15.018;2022-09-21T03:34:35;0.25;;;0.25;;
23668;SDS011;12011;47.422;15.018;2022-09-21T03:37:08;0.19;;;0.19;;
23668;SDS011;12011;47.422;15.018;2022-09-21T03:39:39;0.42;;;0.42;;
23668;SDS011;12011;47.422;15.018;2022-09-21T03:42:11;0.37;;;0.36;;
23668;SDS011;12011;47.422;15.018;2022-09-21T03:44:41;0.47;;;0.46;;
23668;SDS011;12011;47.422;15.018;2022-09-21T03:47:10;0.52;;;0.52;;
23668;SDS011;12011;47.422;15.018;2022-09-21T03:49:43;0.41;;;0.41;;
23668;SDS011;12011;47.422;15.018;2022-09-21T03:52:12;0.61;;;0.60;;
23668;SDS011;12011;47.422;15.018;2022-09-21T03:54:42;0.38;;;0.38;;
23668;SDS011;12011;47.422;15.018;2022-09-21T03:57:12;0.38;;;0.38;;
23668;SDS011;12011;47.422;15.018;2022-09-21T03:59:41;0.29;;;0.29;;
23668;SDS011;12011;47.422;15.018;2022-09-21T04:02:12;0.61;;;0.61;;
23668;SDS011;12011;47.422;15.018;2022-09-21T04:04:44;0.61;;;0.61;;
23668;SDS011;12011;47.422;15.018;2022-09-21T04:07:13;0.44;;;0.44;;
23668;SDS011;12011;47.422;15.018;2022-09-21T04:09:44;0.52;;;0.52;;
23668;SDS011;12011;47.422;15.018;2022-09-21T04:12:14;0.62;;;0.62;;
23668;SDS011;12011;47.422;15.018;2022-09-21T04:14:46;0.59;;;0.59;;
23668;SDS011;12011;47.422;15.018;2022-09-21T04:17:16;0.55;;;0.55;;
23668;SDS011;12011;47.422;15.018;2022-09-21T04:19:50;0.57;;;0.57;;
23668;SDS011;12011;47.422;15.018;2022-09-21T04:22:19;0.44;;;0.44;;
23668;SDS011;12011;47.422;15.018;2022-09-21T04:24:49;0.45;;;0.45;;
23668;SDS011;12011;47.422;15.018;2022-09-21T04:27:19;0.51;;;0.51;;
23668;SDS011;12011;47.422;15.018;2022-09-21T04:29:48;0.40;;;0.40;;
23668;SDS011;12011;47.422;15.018;2022-09-21T04:32:19;0.37;;;0.37;;
23668;SDS011;12011;47.422;15.018;2022-09-21T04:34:51;0.35;;;0.35;;
23668;SDS011;12011;47.422;15.018;2022-09-21T04:37:21;0.30;;;0.30;;
23668;SDS011;12011;47.422;15.018;2022-09-21T04:39:50;0.46;;;0.46;;
23668;SDS011;12011;47.422;15.018;2022-09-21T04:42:20;0.37;;;0.37;;
23668;SDS011;12011;47.422;15.018;2022-09-21T04:44:49;0.37;;;0.37;;
23668;SDS011;12011;47.422;15.018;2022-09-21T04:47:19;0.41;;;0.41;;
23668;SDS011;12011;47.422;15.018;2022-09-21T04:49:52;0.38;;;0.38;;
23668;SDS011;12011;47.422;15.018;2022-09-21T04:52:22;0.38;;;0.38;;
23668;SDS011;12011;47.422;15.018;2022-09-21T04:54:53;0.49;;;0.49;;
23668;SDS011;12011;47.422;15.018;2022-09-21T04:57:24;0.54;;;0.54;;
23668;SDS011;12011;47.422;15.018;2022-09-21T04:59:54;0.37;;;0.37;;
23668;SDS011;12011;47.422;15.018;2022-09-21T05:02:24;0.31;;;0.31;;
23668;SDS011;12011;47.422;15.018;2022-09-21T05:04:56;0.40;;;0.40;;
23668;SDS011;12011;47.422;15.018;2022-09-21T05:07:26;0.50;;;0.50;;
23668;SDS011;12011;47.422;15.018;2022-09-21T05:09:57;0.74;;;0.74;;
23668;SDS011;12011;47.422;15.018;2022-09-21T05:12:32;0.60;;;0.60;;
23668;SDS011;12011;47.422;15.018;2022-09-21T05:15:06;0.60;;;0.60;;
23668;SDS011;12011;47.422;15.018;2022-09-21T05:17:39;0.63;;;0.63;;
23668;SDS011;12011;47.422;15.018;2022-09-21T05:20:12;0.48;;;0.48;;
23668;SDS011;12011;47.422;15.018;2022-09-21T05:22:41;0.52;;;0.52;;
23668;SDS011;12011;47.422;15.018;2022-09-21T05:25:13;0.60;;;0.60;;
23668;SDS011;12011;47.422;15.018;2022-09-21T05:27:44;0.50;;;0.50;;
23668;SDS011;12011;47.422;15.018;2022-09-21T05:30:14;0.60;;;0.60;;
23668;SDS011;12011;47.422;15.018;2022-09-21T05:32:46;0.90;;;0.90;;
23668;SDS011;12011;47.422;15.018;2022-09-21T05:35:30;0.87;;;0.87;;
23668;SDS011;12011;47.422;15.018;2022-09-21T05:38:06;1.00;;;1.00;;
23668;SDS011;12011;47.422;15.018;2022-09-21T05:40:45;0.66;;;0.66;;
23668;SDS011;12011;47.422;15.018;2022-09-21T05:43:17;0.79;;;0.79;;
23668;SDS011;12011;47.422;15.018;2022-09-21T05:45:49;1.21;;;1.21;;
23668;SDS011;12011;47.422;15.018;2022-09-21T05:48:29;1.21;;;1.21;;
23668;SDS011;12011;47.422;15.018;2022-09-21T05:51:12;0.98;;;0.98;;
23668;SDS011;12011;47.422;15.018;2022-09-21T05:54:03;1.06;;;1.06;;
23668;SDS011;12011;47.422;15.018;2022-09-21T05:56:51;0.94;;;0.94;;
23668;SDS011;12011;47.422;15.018;2022-09-21T05:59:49;0.84;;;0.84;;
23668;SDS011;12011;47.422;15.018;2022-09-21T06:02:48;0.74;;;0.74;;
23668;SDS011;12011;47.422;15.018;2022-09-21T06:05:49;0.44;;;0.44;;
23668;SDS011;12011;47.422;15.018;2022-09-21T06:08:24;0.53;;;0.53;;
23668;SDS011;12011;47.422;15.018;2022-09-21T06:10:56;0.56;;;0.56;;
23668;SDS011;12011;47.422;15.018;2022-09-21T06:13:27;0.62;;;0.62;;
23668;SDS011;12011;47.422;15.018;2022-09-21T06:16:00;0.60;;;0.60;;
23668;SDS011;12011;47.422;15.018;2022-09-21T06:18:41;0.79;;;0.78;;
23668;SDS011;12011;47.422;15.018;2022-09-21T06:21:11;0.67;;;0.67;;
23668;SDS011;12011;47.422;15.018;2022-09-21T06:23:43;0.47;;;0.47;;
23668;SDS011;12011;47.422;15.018;2022-09-21T06:26:12;0.43;;;0.43;;
23668;SDS011;12011;47.422;15.018;2022-09-21T06:28:42;0.55;;;0.55;;
23668;SDS011;12011;47.422;15.018;2022-09-21T06:31:12;0.51;;;0.51;;
23668;SDS011;12011;47.422;15.018;2022-09-21T06:33:42;0.46;;;0.46;;
23668;SDS011;12011;47.422;15.018;2022-09-21T06:36:12;0.84;;;0.84;;
23668;SDS011;12011;47.422;15.018;2022-09-21T06:38:47;0.87;;;0.87;;
23668;SDS011;12011;47.422;15.018;2022-09-21T06:41:16;1.34;;;1.34;;
23668;SDS011;12011;47.422;15.018;2022-09-21T06:43:51;1.18;;;1.18;;
23668;SDS011;12011;47.422;15.018;2022-09-21T06:46:25;0.96;;;0.96;;
23668;SDS011;12011;47.422;15.018;2022-09-21T06:49:01;1.47;;;1.47;;
23668;SDS011;12011;47.422;15.018;2022-09-21T06:51:31;1.17;;;1.17;;
23668;SDS011;12011;47.422;15.018;2022-09-21T06:54:04;0.77;;;0.77;;
23668;SDS011;12011;47.422;15.018;2022-09-21T06:56:34;0.80;;;0.80;;
23668;SDS011;12011;47.422;15.018;2022-09-21T06:59:04;0.77;;;0.77;;
23668;SDS011;12011;47.422;15.018;2022-09-21T07:01:33;0.88;;;0.88;;
23668;SDS011;12011;47.422;15.018;2022-09-21T07:04:06;0.51;;;0.51;;
23668;SDS011;12011;47.422;15.018;2022-09-21T07:06:38;0.68;;;0.68;;
23668;SDS011;12011;47.422;15.018;2022-09-21T07:09:12;0.60;;;0.60;;
23668;SDS011;12011;47.422;15.018;2022-09-21T07:11:42;0.98;;;0.98;;
23668;SDS011;12011;47.422;15.018;2022-09-21T07:14:14;0.86;;;0.86;;
23668;SDS011;12011;47.422;15.018;2022-09-21T07:16:44;0.64;;;0.64;;
23668;SDS011;12011;47.422;15.018;2022-09-21T07:19:14;0.69;;;0.69;;
23668;SDS011;12011;47.422;15.018;2022-09-21T07:21:48;0.79;;;0.79;;
23668;SDS011;12011;47.422;15.018;2022-09-21T07:24:23;1.01;;;1.01;;
23668;SDS011;12011;47.422;15.018;2022-09-21T07:26:53;1.10;;;1.10;;
23668;SDS011;12011;47.422;15.018;2022-09-21T07:29:26;1.49;;;1.49;;
23668;SDS011;12011;47.422;15.018;2022-09-21T07:31:58;1.02;;;1.02;;
23668;SDS011;12011;47.422;15.018;2022-09-21T07:34:28;1.02;;;1.02;;
23668;SDS011;12011;47.422;15.018;2022-09-21T07:36:57;1.05;;;1.05;;
23668;SDS011;12011;47.422;15.018;2022-09-21T07:39:30;0.76;;;0.76;;
23668;SDS011;12011;47.422;15.018;2022-09-21T07:42:00;0.77;;;0.77;;
23668;SDS011;12011;47.422;15.018;2022-09-21T07:44:30;0.83;;;0.83;;
23668;SDS011;12011;47.422;15.018;2022-09-21T07:47:01;1.10;;;1.10;;
23668;SDS011;12011;47.422;15.018;2022-09-21T07:49:30;1.05;;;1.05;;
23668;SDS011;12011;47.422;15.018;2022-09-21T07:52:01;0.76;;;0.76;;
23668;SDS011;12011;47.422;15.018;2022-09-21T07:54:38;1.01;;;1.01;;
23668;SDS011;12011;47.422;15.018;2022-09-21T07:57:07;0.73;;;0.73;;
23668;SDS011;12011;47.422;15.018;2022-09-21T07:59:49;0.69;;;0.69;;
23668;SDS011;12011;47.422;15.018;2022-09-21T08:02:21;0.61;;;0.61;;
23668;SDS011;12011;47.422;15.018;2022-09-21T08:04:50;0.92;;;0.92;;
23668;SDS011;12011;47.422;15.018;2022-09-21T08:07:21;1.19;;;1.19;;
23668;SDS011;12011;47.422;15.018;2022-09-21T08:09:55;1.60;;;1.60;;
23668;SDS011;12011;47.422;15.018;2022-09-21T08:12:25;1.29;;;1.29;;
23668;SDS011;12011;47.422;15.018;2022-09-21T08:14:56;0.61;;;0.61;;
23668;SDS011;12011;47.422;15.018;2022-09-21T08:17:26;0.51;;;0.51;;
23668;SDS011;12011;47.422;15.018;2022-09-21T08:19:56;0.50;;;0.50;;
23668;SDS011;12011;47.422;15.018;2022-09-21T08:22:29;0.36;;;0.36;;
23668;SDS011;12011;47.422;15.018;2022-09-21T08:25:03;0.43;;;0.43;;
23668;SDS011;12011;47.422;15.018;2022-09-21T08:27:35;1.72;;;1.72;;
23668;SDS011;12011;47.422;15.018;2022-09-21T08:30:07;0.39;;;0.39;;
23668;SDS011;12011;47.422;15.018;2022-09-21T08:32:42;0.43;;;0.43;;
23668;SDS011;12011;47.422;15.018;2022-09-21T08:35:13;0.35;;;0.35;;
23668;SDS011;12011;47.422;15.018;2022-09-21T08:37:46;0.35;;;0.35;;
23668;SDS011;12011;47.422;15.018;2022-09-21T08:40:26;0.28;;;0.28;;
23668;SDS011;12011;47.422;15.018;2022-09-21T08:42:58;0.58;;;0.58;;
23668;SDS011;12011;47.422;15.018;2022-09-21T08:45:40;0.35;;;0.35;;
23668;SDS011;12011;47.422;15.018;2022-09-21T08:48:18;0.31;;;0.31;;
23668;SDS011;12011;47.422;15.018;2022-09-21T08:50:58;0.31;;;0.31;;
23668;SDS011;12011;47.422;15.018;2022-09-21T08:53:47;0.17;;;0.17;;
23668;SDS011;12011;47.422;15.018;2022-09-21T08:56:24;0.25;;;0.25;;
23668;SDS011;12011;47.422;15.018;2022-09-21T08:59:13;0.21;;;0.21;;
23668;SDS011;12011;47.422;15.018;2022-09-21T09:01:47;0.24;;;0.24;;
23668;SDS011;12011;47.422;15.018;2022-09-21T09:04:32;0.23;;;0.23;;
23668;SDS011;12011;47.422;15.018;2022-09-21T09:07:24;0.25;;;0.25;;
23668;SDS011;12011;47.422;15.018;2022-09-21T09:10:26;0.36;;;0.36;;
23668;SDS011;12011;47.422;15.018;2022-09-21T09:13:11;0.28;;;0.28;;
23668;SDS011;12011;47.422;15.018;2022-09-21T09:16:26;0.28;;;0.28;;
23668;SDS011;12011;47.422;15.018;2022-09-21T09:19:18;0.26;;;0.26;;
23668;SDS011;12011;47.422;15.018;2022-09-21T09:21:56;0.40;;;0.40;;
23668;SDS011;12011;47.422;15.018;2022-09-21T09:24:29;0.32;;;0.32;;
23668;SDS011;12011;47.422;15.018;2022-09-21T09:27:06;0.40;;;0.40;;
23668;SDS011;12011;47.422;15.018;2022-09-21T09:29:49;0.25;;;0.25;;
23668;SDS011;12011;47.422;15.018;2022-09-21T09:32:29;0.21;;;0.21;;
23668;SDS011;12011;47.422;15.018;2022-09-21T09:35:14;0.33;;;0.33;;
23668;SDS011;12011;47.422;15.018;2022-09-21T09:37:54;0.34;;;0.34;;
23668;SDS011;12011;47.422;15.018;2022-09-21T09:40:45;0.44;;;0.44;;
23668;SDS011;12011;47.422;15.018;2022-09-21T09:43:41;0.26;;;0.26;;
23668;SDS011;12011;47.422;15.018;2022-09-21T09:46:28;0.26;;;0.26;;
23668;SDS011;12011;47.422;15.018;2022-09-21T09:49:13;0.32;;;0.32;;
23668;SDS011;12011;47.422;15.018;2022-09-21T09:52:07;0.22;;;0.22;;
23668;SDS011;12011;47.422;15.018;2022-09-21T09:54:42;0.44;;;0.44;;
23668;SDS011;12011;47.422;15.018;2022-09-21T09:57:14;0.29;;;0.29;;
23668;SDS011;12011;47.422;15.018;2022-09-21T09:59:56;0.23;;;0.23;;
23668;SDS011;12011;47.422;15.018;2022-09-21T10:02:47;0.61;;;0.61;;
23668;SDS011;12011;47.422;15.018;2022-09-21T10:05:21;0.44;;;0.44;;
23668;SDS011;12011;47.422;15.018;2022-09-21T10:07:53;0.39;;;0.39;;
23668;SDS011;12011;47.422;15.018;2022-09-21T10:10:25;0.20;;;0.20;;
23668;SDS011;12011;47.422;15.018;2022-09-21T10:13:04;0.41;;;0.41;;
23668;SDS011;12011;47.422;15.018;2022-09-21T10:15:44;0.41;;;0.41;;
23668;SDS011;12011;47.422;15.018;2022-09-21T10:18:27;0.18;;;0.18;;
23668;SDS011;12011;47.422;15.018;2022-09-21T10:21:13;0.20;;;0.20;;
23668;SDS011;12011;47.422;15.018;2022-09-21T10:23:50;0.19;;;0.19;;
23668;SDS011;12011;47.422;15.018;2022-09-21T10:26:29;0.14;;;0.14;;
23668;SDS011;12011;47.422;15.018;2022-09-21T10:29:16;0.17;;;0.17;;
23668;SDS011;12011;47.422;15.018;2022-09-21T10:31:58;0.15;;;0.15;;
23668;SDS011;12011;47.422;15.018;2022-09-21T10:34:34;0.16;;;0.16;;
23668;SDS011;12011;47.422;15.018;2022-09-21T10:37:23;0.22;;;0.22;;
23668;SDS011;12011;47.422;15.018;2022-09-21T10:39:58;0.26;;;0.26;;
23668;SDS011;12011;47.422;15.018;2022-09-21T10:42:28;0.17;;;0.17;;
23668;SDS011;12011;47.422;15.018;2022-09-21T10:45:04;0.15;;;0.15;;
23668;SDS011;12011;47.422;15.018;2022-09-21T10:47:45;0.12;;;0.12;;
23668;SDS011;12011;47.422;15.018;2022-09-21T10:50:25;0.17;;;0.17;;
23668;SDS011;12011;47.422;15.018;2022-09-21T10:53:09;0.17;;;0.17;;
23668;SDS011;12011;47.422;15.018;2022-09-21T10:55:59;0.13;;;0.13;;
23668;SDS011;12011;47.422;15.018;2022-09-21T10:58:33;0.12;;;0.12;;
23668;SDS011;12011;47.422;15.018;2022-09-21T11:01:09;0.13;;;0.13;;
23668;SDS011;12011;47.422;15.018;2022-09-21T11:03:45;0.16;;;0.16;;
23668;SDS011;12011;47.422;15.018;2022-09-21T11:06:24;0.15;;;0.15;;
23668;SDS011;12011;47.422;15.018;2022-09-21T11:09:04;0.19;;;0.19;;
23668;SDS011;12011;47.422;15.018;2022-09-21T11:11:41;0.15;;;0.15;;
23668;SDS011;12011;47.422;15.018;2022-09-21T11:14:25;0.14;;;0.14;;
23668;SDS011;12011;47.422;15.018;2022-09-21T11:17:13;0.20;;;0.20;;
23668;SDS011;12011;47.422;15.018;2022-09-21T11:19:53;0.21;;;0.21;;
23668;SDS011;12011;47.422;15.018;2022-09-21T11:22:39;0.18;;;0.18;;
23668;SDS011;12011;47.422;15.018;2022-09-21T11:25:24;0.09;;;0.09;;
23668;SDS011;12011;47.422;15.018;2022-09-21T11:28:05;0.14;;;0.14;;
23668;SDS011;12011;47.422;15.018;2022-09-21T11:30:54;0.22;;;0.22;;
23668;SDS011;12011;47.422;15.018;2022-09-21T11:34:02;0.09;;;0.09;;
23668;SDS011;12011;47.422;15.018;2022-09-21T11:36:52;0.08;;;0.08;;
23668;SDS011;12011;47.422;15.018;2022-09-21T11:39:40;0.13;;;0.13;;
23668;SDS011;12011;47.422;15.018;2022-09-21T11:42:31;0.12;;;0.12;;
23668;SDS011;12011;47.422;15.018;2022-09-21T11:45:25;0.13;;;0.13;;
23668;SDS011;12011;47.422;15.018;2022-09-21T11:48:16;0.10;;;0.10;;
23668;SDS011;12011;47.422;15.018;2022-09-21T11:51:07;0.06;;;0.06;;
23668;SDS011;12011;47.422;15.018;2022-09-21T11:54:12;0.12;;;0.12;;
23668;SDS011;12011;47.422;15.018;2022-09-21T11:57:17;0.09;;;0.09;;
23668;SDS011;12011;47.422;15.018;2022-09-21T11:59:57;0.07;;;0.07;;
23668;SDS011;12011;47.422;15.018;2022-09-21T12:02:44;0.13;;;0.13;;
23668;SDS011;12011;47.422;15.018;2022-09-21T12:06:04;0.13;;;0.13;;
23668;SDS011;12011;47.422;15.018;2022-09-21T12:08:51;0.21;;;0.21;;
23668;SDS011;12011;47.422;15.018;2022-09-21T12:12:03;0.15;;;0.15;;
23668;SDS011;12011;47.422;15.018;2022-09-21T12:14:43;0.13;;;0.13;;
23668;SDS011;12011;47.422;15.018;2022-09-21T12:17:26;0.08;;;0.08;;
23668;SDS011;12011;47.422;15.018;2022-09-21T12:20:10;0.16;;;0.16;;
23668;SDS011;12011;47.422;15.018;2022-09-21T12:22:54;0.17;;;0.17;;
23668;SDS011;12011;47.422;15.018;2022-09-21T12:25:31;0.20;;;0.20;;
23668;SDS011;12011;47.422;15.018;2022-09-21T12:28:10;0.24;;;0.24;;
23668;SDS011;12011;47.422;15.018;2022-09-21T12:30:49;0.37;;;0.37;;
23668;SDS011;12011;47.422;15.018;2022-09-21T12:33:31;0.19;;;0.19;;
23668;SDS011;12011;47.422;15.018;2022-09-21T12:36:09;0.50;;;0.50;;
23668;SDS011;12011;47.422;15.018;2022-09-21T12:38:47;0.23;;;0.23;;
23668;SDS011;12011;47.422;15.018;2022-09-21T12:41:28;0.21;;;0.21;;
23668;SDS011;12011;47.422;15.018;2022-09-21T12:44:14;0.17;;;0.17;;
23668;SDS011;12011;47.422;15.018;2022-09-21T12:46:53;0.28;;;0.28;;
23668;SDS011;12011;47.422;15.018;2022-09-21T12:49:38;0.24;;;0.24;;
23668;SDS011;12011;47.422;15.018;2022-09-21T12:52:17;0.14;;;0.14;;
23668;SDS011;12011;47.422;15.018;2022-09-21T12:54:52;0.11;;;0.11;;
23668;SDS011;12011;47.422;15.018;2022-09-21T12:57:37;0.14;;;0.14;;
23668;SDS011;12011;47.422;15.018;2022-09-21T13:00:22;0.26;;;0.26;;
23668;SDS011;12011;47.422;15.018;2022-09-21T13:03:02;0.21;;;0.21;;
23668;SDS011;12011;47.422;15.018;2022-09-21T13:05:48;0.17;;;0.17;;
23668;SDS011;12011;47.422;15.018;2022-09-21T13:08:39;0.13;;;0.13;;
23668;SDS011;12011;47.422;15.018;2022-09-21T13:11:14;0.11;;;0.11;;
23668;SDS011;12011;47.422;15.018;2022-09-21T13:13:46;0.16;;;0.16;;
23668;SDS011;12011;47.422;15.018;2022-09-21T13:16:25;0.14;;;0.14;;
23668;SDS011;12011;47.422;15.018;2022-09-21T13:18:58;0.17;;;0.17;;
23668;SDS011;12011;47.422;15.018;2022-09-21T13:21:31;0.17;;;0.17;;
23668;SDS011;12011;47.422;15.018;2022-09-21T13:24:02;0.19;;;0.19;;
23668;SDS011;12011;47.422;15.018;2022-09-21T13:26:34;0.15;;;0.15;;
23668;SDS011;12011;47.422;15.018;2022-09-21T13:32:00;0.20;;;0.20;;
23668;SDS011;12011;47.422;15.018;2022-09-21T13:34:32;0.21;;;0.21;;
23668;SDS011;12011;47.422;15.018;2022-09-21T13:43:13;0.20;;;0.20;;
23668;SDS011;12011;47.422;15.018;2022-09-21T13:45:53;0.42;;;0.42;;
23668;SDS011;12011;47.422;15.018;2022-09-21T13:48:28;0.31;;;0.31;;
23668;SDS011;12011;47.422;15.018;2022-09-21T13:50:59;0.28;;;0.28;;
23668;SDS011;12011;47.422;15.018;2022-09-21T13:53:37;0.17;;;0.17;;
23668;SDS011;12011;47.422;15.018;2022-09-21T13:56:15;0.20;;;0.20;;
23668;SDS011;12011;47.422;15.018;2022-09-21T13:58:49;0.12;;;0.12;;
23668;SDS011;12011;47.422;15.018;2022-09-21T14:01:23;0.25;;;0.25;;
23668;SDS011;12011;47.422;15.018;2022-09-21T14:04:04;0.21;;;0.21;;
23668;SDS011;12011;47.422;15.018;2022-09-21T14:06:49;0.15;;;0.15;;
23668;SDS011;12011;47.422;15.018;2022-09-21T14:09:23;0.23;;;0.23;;
23668;SDS011;12011;47.422;15.018;2022-09-21T14:11:58;0.14;;;0.14;;
23668;SDS011;12011;47.422;15.018;2022-09-21T14:14:33;0.38;;;0.38;;
23668;SDS011;12011;47.422;15.018;2022-09-21T14:17:32;0.31;;;0.31;;
23668;SDS011;12011;47.422;15.018;2022-09-21T14:20:24;0.11;;;0.11;;
23668;SDS011;12011;47.422;15.018;2022-09-21T14:25:55;0.30;;;0.30;;
23668;SDS011;12011;47.422;15.018;2022-09-21T14:28:30;0.18;;;0.18;;
23668;SDS011;12011;47.422;15.018;2022-09-21T14:31:07;0.23;;;0.23;;
23668;SDS011;12011;47.422;15.018;2022-09-21T14:33:50;0.26;;;0.26;;
23668;SDS011;12011;47.422;15.018;2022-09-21T14:36:31;0.19;;;0.19;;
23668;SDS011;12011;47.422;15.018;2022-09-21T14:39:12;0.21;;;0.21;;
23668;SDS011;12011;47.422;15.018;2022-09-21T14:41:48;0.16;;;0.16;;
23668;SDS011;12011;47.422;15.018;2022-09-21T14:44:23;0.24;;;0.24;;
23668;SDS011;12011;47.422;15.018;2022-09-21T14:47:06;0.13;;;0.13;;
23668;SDS011;12011;47.422;15.018;2022-09-21T14:50:15;0.10;;;0.10;;
23668;SDS011;12011;47.422;15.018;2022-09-21T14:56:10;0.18;;;0.18;;
23668;SDS011;12011;47.422;15.018;2022-09-21T14:59:11;0.31;;;0.31;;
23668;SDS011;12011;47.422;15.018;2022-09-21T15:01:58;0.21;;;0.21;;
23668;SDS011;12011;47.422;15.018;2022-09-21T15:04:40;0.24;;;0.24;;
23668;SDS011;12011;47.422;15.018;2022-09-21T15:07:27;0.45;;;0.45;;
23668;SDS011;12011;47.422;15.018;2022-09-21T15:10:23;0.26;;;0.26;;
23668;SDS011;12011;47.422;15.018;2022-09-21T15:13:10;0.14;;;0.14;;
23668;SDS011;12011;47.422;15.018;2022-09-21T15:15:58;0.15;;;0.15;;
23668;SDS011;12011;47.422;15.018;2022-09-21T15:19:04;0.32;;;0.32;;
23668;SDS011;12011;47.422;15.018;2022-09-21T15:21:43;0.23;;;0.23;;
23668;SDS011;12011;47.422;15.018;2022-09-21T15:24:17;0.15;;;0.15;;
23668;SDS011;12011;47.422;15.018;2022-09-21T15:26:59;0.20;;;0.20;;
23668;SDS011;12011;47.422;15.018;2022-09-21T15:29:35;0.24;;;0.24;;
23668;SDS011;12011;47.422;15.018;2022-09-21T15:32:06;0.21;;;0.21;;
23668;SDS011;12011;47.422;15.018;2022-09-21T15:34:37;0.15;;;0.15;;
23668;SDS011;12011;47.422;15.018;2022-09-21T15:37:07;0.28;;;0.28;;
23668;SDS011;12011;47.422;15.018;2022-09-21T15:39:44;0.20;;;0.20;;
23668;SDS011;12011;47.422;15.018;2022-09-21T15:42:17;0.20;;;0.20;;
23668;SDS011;12011;47.422;15.018;2022-09-21T15:44:48;0.28;;;0.28;;
23668;SDS011;12011;47.422;15.018;2022-09-21T15:47:45;0.13;;;0.13;;
23668;SDS011;12011;47.422;15.018;2022-09-21T15:50:14;0.31;;;0.31;;
23668;SDS011;12011;47.422;15.018;2022-09-21T15:52:46;0.18;;;0.18;;
23668;SDS011;12011;47.422;15.018;2022-09-21T15:55:23;0.17;;;0.17;;
23668;SDS011;12011;47.422;15.018;2022-09-21T15:57:57;0.19;;;0.19;;
23668;SDS011;12011;47.422;15.018;2022-09-21T16:00:27;0.21;;;0.21;;
23668;SDS011;12011;47.422;15.018;2022-09-21T16:03:03;0.20;;;0.20;;